Time;durP1;ratioP1;P1;durP2;ratioP2;P2;SDS_P1;SDS_P2;PMS_P1;PMS_P2;Temp;Humidity;BMP_temperature;BMP_pressure;BME280_temperature;BME280_humidity;BME280_pressure;Samples;Min_cycle;Max_cycle;Signal;HPM_P1;HPM_P2
2023/02/24 00:00:32;;;;;;;21.00;15.67;;;;;;;14.41;59.60;98316.75;7021420;28;20229;-83
2023/02/24 00:03:55;;;;;;;17.87;13.43;;;;;;;14.42;59.21;98318.38;7027736;28;20256;-81
2023/02/24 00:07:17;;;;;;;20.00;13.57;;;;;;;14.35;58.43;98315.00;7017882;28;20202;-82
2023/02/24 00:10:39;;;;;;;20.87;14.70;;;;;;;13.83;59.51;98300.59;7017358;28;20225;-82
2023/02/24 00:14:04;;;;;;;18.23;14.97;;;;;;;14.15;59.53;98306.41;7016480;28;20209;-81
2023/02/24 00:17:26;;;;;;;18.00;13.47;;;;;;;14.29;59.34;98303.19;7015103;28;20232;-81
2023/02/24 00:20:48;;;;;;;18.73;12.57;;;;;;;14.13;59.59;98295.81;7016057;28;20212;-82
2023/02/24 00:24:09;;;;;;;18.33;13.43;;;;;;;13.98;59.90;98310.94;7016246;28;20720;-82
2023/02/24 00:27:32;;;;;;;17.13;13.93;;;;;;;14.05;59.65;98298.06;7015229;28;20319;-81
2023/02/24 00:30:55;;;;;;;19.60;13.57;;;;;;;13.48;60.69;98315.19;7016350;28;20210;-82
2023/02/24 00:34:17;;;;;;;18.03;14.17;;;;;;;13.53;60.77;98302.63;7015592;28;20204;-81
2023/02/24 00:37:38;;;;;;;20.07;15.10;;;;;;;13.64;60.44;98300.97;7014951;28;20226;-82
2023/02/24 00:41:01;;;;;;;21.37;15.23;;;;;;;13.35;61.84;98308.16;7015546;28;20273;-81
2023/02/24 00:44:23;;;;;;;21.63;14.77;;;;;;;13.38;62.09;98287.88;7014334;28;20312;-82
2023/02/24 00:47:46;;;;;;;20.03;15.40;;;;;;;13.75;61.58;98281.16;7013023;28;20230;-81
2023/02/24 00:51:09;;;;;;;19.63;14.30;;;;;;;14.10;60.35;98293.56;7013854;28;20233;-83
2023/02/24 00:54:31;;;;;;;20.80;14.23;;;;;;;14.20;60.05;98285.69;7013584;28;20614;-82
2023/02/24 00:57:53;;;;;;;20.67;14.47;;;;;;;14.06;59.82;98270.72;7013867;28;20234;-82
2023/02/24 01:01:17;;;;;;;21.00;13.93;;;;;;;13.97;59.60;98271.31;7013637;28;20227;-82
2023/02/24 01:04:39;;;;;;;19.93;13.43;;;;;;;14.07;59.86;98280.50;7013097;28;20229;-81
2023/02/24 01:08:01;;;;;;;21.93;14.67;;;;;;;13.90;60.05;98295.84;7013778;28;20653;-81
2023/02/24 01:15:10;;;;;;;23.03;15.90;;;;;;;13.53;61.96;98280.13;7013611;28;20188;-82
2023/02/24 01:18:31;;;;;;;23.70;16.70;;;;;;;13.78;61.22;98277.97;7012640;28;20227;-81
2023/02/24 01:21:54;;;;;;;25.97;17.33;;;;;;;13.84;61.50;98277.00;7014117;28;20375;-82
2023/02/24 01:25:19;;;;;;;26.97;18.83;;;;;;;13.83;61.58;98270.78;7012817;28;20206;-82
2023/02/24 01:28:40;;;;;;;28.37;18.90;;;;;;;14.05;61.18;98263.63;7011144;28;20232;-83
2023/02/24 01:32:02;;;;;;;24.87;18.77;;;;;;;14.11;61.24;98261.88;7011848;28;20935;-82
2023/02/24 01:35:25;;;;;;;23.07;17.17;;;;;;;14.28;60.65;98252.75;7011176;28;20246;-82
2023/02/24 01:38:48;;;;;;;25.03;15.50;;;;;;;14.33;59.78;98263.69;7011224;28;20230;-82
2023/02/24 01:42:15;;;;;;;21.60;15.63;;;;;;;13.85;59.92;98227.16;7011295;28;20225;-82
2023/02/24 01:45:38;;;;;;;18.63;15.00;;;;;;;14.18;59.69;98255.25;7010036;28;20206;-82
2023/02/24 01:49:03;;;;;;;25.03;17.07;;;;;;;13.79;60.51;98253.34;7010060;28;20237;-82
2023/02/24 01:52:29;;;;;;;25.37;17.63;;;;;;;13.91;61.19;98242.47;7011754;28;20203;-82
2023/02/24 01:55:53;;;;;;;25.83;20.93;;;;;;;13.98;61.51;98226.91;7010933;28;20208;-82
2023/02/24 01:59:15;;;;;;;24.27;19.90;;;;;;;14.32;61.07;98232.22;7010547;28;20249;-82
2023/02/24 02:02:37;;;;;;;24.60;19.73;;;;;;;14.32;60.94;98228.69;7010237;28;20226;-82
2023/02/24 02:06:01;;;;;;;25.30;20.07;;;;;;;14.33;60.66;98233.88;7007614;28;20210;-83
2023/02/24 02:09:22;;;;;;;29.93;20.33;;;;;;;14.23;61.08;98239.09;7009810;28;20290;-82
2023/02/24 02:12:46;;;;;;;26.87;20.03;;;;;;;14.26;60.92;98237.78;7009086;28;20274;-82
2023/02/24 02:16:25;;;;;;;30.43;20.70;;;;;;;14.24;61.20;98231.78;7006903;28;20237;-83
2023/02/24 02:20:05;;;;;;;34.80;22.70;;;;;;;14.02;61.88;98233.47;7008776;28;20697;-83
2023/02/24 02:24:03;;;;;;;32.83;23.00;;;;;;;14.40;61.33;98229.13;7000107;28;20218;-82
2023/02/24 02:27:33;;;;;;;38.13;23.33;;;;;;;14.20;61.79;98222.47;6980384;28;20231;-83
2023/02/24 02:31:18;;;;;;;36.80;24.80;;;;;;;13.85;62.06;98162.97;6981862;28;20734;-81
2023/02/24 02:34:49;;;;;;;42.53;25.80;;;;;;;14.08;62.43;98221.66;7002630;28;20868;-82
2023/02/24 02:38:14;;;;;;;41.93;26.40;;;;;;;13.86;62.21;98169.22;7007336;28;20230;-82
2023/02/24 02:41:42;;;;;;;38.57;26.20;;;;;;;14.25;61.89;98220.72;7014255;28;20210;-81
2023/02/24 02:45:07;;;;;;;37.13;26.53;;;;;;;14.16;62.50;98216.69;7013288;28;20319;-83
2023/02/24 02:48:33;;;;;;;39.50;27.80;;;;;;;13.79;62.77;98192.91;7013330;28;20224;-84
2023/02/24 02:51:59;;;;;;;41.17;27.57;;;;;;;14.06;62.79;98204.84;7014286;28;20209;-82
2023/02/24 02:55:26;;;;;;;39.47;26.17;;;;;;;14.23;62.15;98186.78;7014562;28;20702;-83
2023/02/24 02:58:52;;;;;;;37.77;25.20;;;;;;;14.14;62.11;98182.75;7014251;28;20247;-82
2023/02/24 03:02:16;;;;;;;36.50;25.87;;;;;;;14.23;62.18;98200.31;7015161;28;20646;-83
2023/02/24 03:05:45;;;;;;;38.63;25.60;;;;;;;13.94;62.72;98171.53;7006812;28;20294;-82
2023/02/24 03:09:11;;;;;;;34.40;25.17;;;;;;;14.21;62.25;98192.44;7002283;28;20715;-81
2023/02/24 03:12:33;;;;;;;36.33;25.60;;;;;;;14.23;62.35;98184.06;7002754;28;20200;-81
2023/02/24 03:15:55;;;;;;;37.63;25.40;;;;;;;14.14;61.70;98148.34;7001040;28;20216;-81
2023/02/24 03:19:20;;;;;;;39.80;27.40;;;;;;;14.10;62.07;98170.78;7002592;28;20306;-82
2023/02/24 03:22:48;;;;;;;41.43;26.93;;;;;;;14.19;62.32;98159.31;7001303;28;20223;-81
2023/02/24 03:26:17;;;;;;;35.63;26.23;;;;;;;14.47;61.27;98164.72;6974391;28;20196;-82
2023/02/24 03:29:42;;;;;;;40.80;25.97;;;;;;;14.30;61.53;98158.44;6974982;28;20361;-81
2023/02/24 03:33:10;;;;;;;37.83;25.13;;;;;;;14.37;61.45;98153.69;6974727;28;20192;-82
2023/02/24 03:36:32;;;;;;;37.33;25.73;;;;;;;14.52;60.99;98158.53;6973644;28;20216;-81
2023/02/24 03:39:55;;;;;;;40.47;24.50;;;;;;;14.62;60.77;98162.25;6974463;28;20229;-81
2023/02/24 03:43:21;;;;;;;36.40;25.27;;;;;;;14.54;60.53;98153.69;6974286;28;20277;-81
2023/02/24 03:46:43;;;;;;;37.00;26.70;;;;;;;14.27;61.09;98153.50;6973476;28;20309;-81
2023/02/24 03:50:11;;;;;;;41.37;25.37;;;;;;;14.43;60.68;98165.44;6997160;28;20255;-81
2023/02/24 03:53:38;;;;;;;40.77;26.30;;;;;;;14.24;61.04;98145.03;7001806;28;20231;-82
2023/02/24 03:57:11;;;;;;;35.27;24.97;;;;;;;14.60;60.58;98158.13;7000990;28;20242;-82
2023/02/24 04:00:39;;;;;;;39.27;25.33;;;;;;;14.42;60.49;98152.94;7002482;28;20194;-81
2023/02/24 04:04:06;;;;;;;41.93;26.73;;;;;;;13.92;61.83;98157.41;7003191;28;20309;-81
2023/02/24 04:07:37;;;;;;;42.57;27.63;;;;;;;14.43;60.74;98160.84;7003021;28;20227;-82
2023/02/24 04:11:04;;;;;;;38.13;25.27;;;;;;;14.31;61.32;98161.97;7004350;28;20636;-81
2023/02/24 04:14:30;;;;;;;43.57;26.03;;;;;;;14.30;61.26;98154.91;7023699;28;20202;-82
2023/02/24 04:17:56;;;;;;;41.27;27.83;;;;;;;14.00;61.95;98157.84;6999669;28;20749;-82
2023/02/24 04:21:19;;;;;;;40.70;26.83;;;;;;;14.28;61.61;98159.75;7000428;28;20186;-81
2023/02/24 04:24:45;;;;;;;38.87;26.47;;;;;;;14.20;61.79;98155.53;7000344;28;20242;-82
2023/02/24 04:28:07;;;;;;;41.50;28.20;;;;;;;14.28;61.70;98151.63;6999619;28;20226;-82
2023/02/24 04:31:30;;;;;;;41.00;26.40;;;;;;;14.19;61.79;98142.22;7000315;28;20212;-82
2023/02/24 04:34:53;;;;;;;45.30;27.77;;;;;;;14.29;61.56;98145.94;7002239;28;20235;-82
2023/02/24 04:38:15;;;;;;;40.80;28.10;;;;;;;14.12;62.17;98142.34;7002450;28;20233;-82
2023/02/24 04:41:36;;;;;;;40.27;27.30;;;;;;;14.04;62.01;98106.69;7003745;28;20726;-82
2023/02/24 04:44:58;;;;;;;44.27;29.33;;;;;;;13.97;62.18;98146.66;7002762;28;20230;-82
2023/02/24 04:48:19;;;;;;;43.90;28.47;;;;;;;14.07;61.77;98131.41;7002360;28;20230;-82
2023/02/24 04:51:42;;;;;;;46.13;28.83;;;;;;;13.71;62.11;98077.63;7002896;28;20262;-82
2023/02/24 04:55:08;;;;;;;45.60;29.20;;;;;;;14.02;62.36;98127.78;7003072;28;20619;-82
2023/02/24 04:58:30;;;;;;;44.50;28.50;;;;;;;14.20;61.69;98131.13;7001651;28;20230;-81
2023/02/24 05:01:52;;;;;;;42.73;27.20;;;;;;;13.82;61.93;98089.47;7002157;28;20203;-82
2023/02/24 05:05:13;;;;;;;49.80;30.93;;;;;;;14.01;62.14;98116.13;7002695;28;20246;-82
2023/02/24 05:08:37;;;;;;;44.13;29.50;;;;;;;13.83;62.80;98115.50;7002060;28;20257;-82
2023/02/24 05:11:59;;;;;;;47.20;29.90;;;;;;;13.83;62.60;98112.78;7001504;28;20213;-82
2023/02/24 05:15:20;;;;;;;50.17;29.57;;;;;;;14.11;62.00;98113.56;7001092;28;20208;-82
2023/02/24 05:18:43;;;;;;;46.93;28.57;;;;;;;14.24;61.51;98113.31;7001441;28;20369;-83
2023/02/24 05:22:05;;;;;;;52.63;30.17;;;;;;;13.87;62.36;98098.50;6998880;28;20219;-81
2023/02/24 05:25:28;;;;;;;54.87;31.83;;;;;;;13.34;62.92;98064.72;6998877;28;20221;-81
2023/02/24 05:28:51;;;;;;;53.60;31.07;;;;;;;13.86;62.88;98088.75;6998400;28;20714;-81
2023/02/24 05:32:15;;;;;;;56.67;30.70;;;;;;;13.82;62.54;98081.34;6971294;28;20208;-81
2023/02/24 05:35:37;;;;;;;55.00;30.77;;;;;;;14.05;62.10;98073.09;6996858;28;20207;-83
2023/02/24 05:39:03;;;;;;;51.87;30.70;;;;;;;13.77;62.34;98071.25;6998875;28;20271;-81
2023/02/24 05:42:26;;;;;;;53.40;30.07;;;;;;;13.83;62.34;98072.16;6999856;28;20202;-82
2023/02/24 05:45:48;;;;;;;44.63;29.00;;;;;;;13.90;62.45;98064.69;6989165;28;20304;-81
2023/02/24 05:49:13;;;;;;;48.87;30.30;;;;;;;13.76;62.53;98074.19;6985001;28;20223;-81
2023/02/24 05:52:36;;;;;;;51.43;31.00;;;;;;;13.34;63.74;98062.81;6994534;28;20193;-82
2023/02/24 05:56:00;;;;;;;55.60;30.60;;;;;;;13.68;62.97;98067.28;6995397;28;20223;-81
2023/02/24 05:59:23;;;;;;;55.20;31.63;;;;;;;13.85;62.59;98056.47;6999198;28;20718;-81
2023/02/24 06:02:48;;;;;;;55.97;30.93;;;;;;;13.83;62.61;98061.31;6998740;28;20687;-81
2023/02/24 06:06:09;;;;;;;53.83;31.90;;;;;;;14.01;62.06;98058.38;6998898;28;20645;-81
2023/02/24 06:09:31;;;;;;;52.80;30.47;;;;;;;14.04;61.84;98050.56;6998956;28;20235;-81
2023/02/24 06:12:52;;;;;;;57.63;29.57;;;;;;;13.82;62.22;98054.25;6998886;28;20282;-81
2023/02/24 06:16:17;;;;;;;52.03;30.27;;;;;;;13.73;61.77;98034.84;7002731;28;20212;-81
2023/02/24 06:19:40;;;;;;;57.53;33.73;;;;;;;13.83;61.93;98050.47;7004764;28;20294;-81
2023/02/24 06:23:04;;;;;;;57.60;33.80;;;;;;;14.09;61.66;98041.72;6999853;28;20202;-81
2023/02/24 06:26:28;;;;;;;58.30;33.70;;;;;;;13.50;62.25;98031.41;6976548;28;20207;-81
2023/02/24 06:29:51;;;;;;;54.57;32.37;;;;;;;13.81;62.22;98045.28;6977332;28;20362;-81
2023/02/24 06:33:15;;;;;;;61.77;32.87;;;;;;;13.87;61.89;98044.31;6976683;28;20205;-81
2023/02/24 06:36:37;;;;;;;56.53;32.43;;;;;;;13.67;62.07;98002.50;6974896;28;20218;-81
2023/02/24 06:39:58;;;;;;;62.97;35.43;;;;;;;14.07;61.47;98041.13;6975287;28;20228;-82
2023/02/24 06:43:20;;;;;;;57.47;34.40;;;;;;;14.07;61.38;98047.38;6975505;28;20229;-81
2023/02/24 06:46:42;;;;;;;58.27;34.23;;;;;;;13.72;62.16;98057.59;6985282;28;20271;-81
2023/02/24 06:50:06;;;;;;;59.47;34.80;;;;;;;13.54;62.56;98048.84;7003096;28;20316;-82
2023/02/24 06:53:28;;;;;;;61.10;34.13;;;;;;;13.85;61.62;98043.75;7002760;28;20671;-81
2023/02/24 06:56:49;;;;;;;63.57;35.33;;;;;;;13.80;61.90;98042.84;7002455;28;20217;-82
2023/02/24 07:00:16;;;;;;;57.67;34.13;;;;;;;13.84;61.92;98033.16;7002688;28;20234;-80
2023/02/24 07:04:01;;;;;;;60.83;34.17;;;;;;;13.96;61.42;98036.59;7002391;28;20221;-81
2023/02/24 07:07:23;;;;;;;66.70;34.70;;;;;;;13.89;61.23;98038.66;7002054;28;20226;-82
2023/02/24 07:10:46;;;;;;;60.77;33.83;;;;;;;13.72;61.91;98038.63;7003145;28;20611;-81
2023/02/24 07:14:08;;;;;;;64.17;33.70;;;;;;;13.81;61.50;98036.34;7001860;28;20212;-81
2023/02/24 07:17:30;;;;;;;72.60;39.23;;;;;;;13.70;61.81;98027.19;7001939;28;20236;-81
2023/02/24 07:20:51;;;;;;;75.00;40.43;;;;;;;13.79;62.10;98033.88;7002451;28;20258;-81
2023/02/24 07:24:23;;;;;;;79.73;40.33;;;;;;;13.97;61.50;98025.53;6988406;28;20644;-81
2023/02/24 07:27:45;;;;;;;135.10;43.67;;;;;;;13.83;61.55;98016.09;6972721;28;20957;-81
2023/02/24 07:31:08;;;;;;;84.70;38.47;;;;;;;14.04;60.68;98023.47;6976160;28;20211;-82
2023/02/24 07:34:29;;;;;;;71.30;34.77;;;;;;;13.79;61.53;98005.94;6974895;28;20570;-81
2023/02/24 07:37:52;;;;;;;76.07;34.73;;;;;;;13.90;61.53;98024.03;6974220;28;20222;-81
2023/02/24 07:41:17;;;;;;;66.83;35.20;;;;;;;14.03;61.27;98012.88;6975243;28;20278;-81
2023/02/24 07:44:39;;;;;;;59.23;34.43;;;;;;;13.87;61.34;98011.00;6974769;28;20369;-81
2023/02/24 07:48:01;;;;;;;65.17;34.57;;;;;;;13.92;61.12;98011.09;6972708;28;20707;-81
2023/02/24 07:51:24;;;;;;;59.70;33.67;;;;;;;13.86;61.10;98018.28;6975324;28;20221;-81
2023/02/24 07:54:47;;;;;;;56.23;33.33;;;;;;;13.38;62.07;98017.13;6974575;28;20243;-81
2023/02/24 07:58:11;;;;;;;59.17;33.17;;;;;;;13.93;61.38;98021.66;6974327;28;20225;-81
2023/02/24 08:01:37;;;;;;;60.77;35.33;;;;;;;13.81;61.22;98026.31;6983815;28;20702;-80
2023/02/24 08:05:01;;;;;;;56.57;34.90;;;;;;;13.61;62.20;98011.59;7003247;28;20229;-81
2023/02/24 08:08:24;;;;;;;61.17;34.50;;;;;;;13.96;61.27;98004.09;7002137;28;20716;-80
2023/02/24 08:11:51;;;;;;;68.47;35.07;;;;;;;13.60;61.88;98010.78;7001673;28;20294;-79
2023/02/24 08:15:22;;;;;;;70.63;36.13;;;;;;;13.58;61.94;98004.78;7001247;28;20267;-80
2023/02/24 08:18:47;;;;;;;56.93;34.17;;;;;;;13.47;62.00;98008.38;7001422;28;20228;-80
2023/02/24 08:22:19;;;;;;;60.37;34.70;;;;;;;13.76;61.78;97998.34;7002208;28;20304;-80
2023/02/24 08:25:43;;;;;;;65.90;34.43;;;;;;;14.05;60.83;97995.28;7001219;28;20431;-80
2023/02/24 08:29:06;;;;;;;63.70;36.07;;;;;;;14.11;60.44;97996.22;7000759;28;20229;-80
2023/02/24 08:32:33;;;;;;;69.00;37.37;;;;;;;14.28;60.00;97987.03;7001314;28;20218;-79
2023/02/24 08:35:59;;;;;;;73.27;35.47;;;;;;;14.01;60.92;97990.63;6998023;28;20190;-81
2023/02/24 08:39:21;;;;;;;71.13;36.70;;;;;;;14.09;60.59;97982.91;7000795;28;20258;-80
2023/02/24 08:42:42;;;;;;;68.23;36.17;;;;;;;14.02;60.85;97978.72;7001809;28;20693;-80
2023/02/24 08:46:17;;;;;;;73.53;37.73;;;;;;;13.99;60.75;97976.50;7000741;28;20246;-80
2023/02/24 08:49:40;;;;;;;85.83;37.73;;;;;;;13.62;61.46;97981.56;7005490;28;20274;-80
2023/02/24 08:53:01;;;;;;;69.13;36.03;;;;;;;14.15;60.72;97975.69;7022476;28;20489;-81
2023/02/24 08:56:25;;;;;;;80.33;35.63;;;;;;;14.23;60.12;97975.28;7013641;28;20230;-81
2023/02/24 08:59:49;;;;;;;81.20;36.70;;;;;;;14.37;59.31;97965.72;6973728;28;20325;-81
2023/02/24 09:03:15;;;;;;;80.70;37.83;;;;;;;14.28;60.24;97961.81;6980407;28;20297;-82
2023/02/24 09:06:43;;;;;;;78.07;35.03;;;;;;;14.35;59.50;97957.03;6997326;28;20219;-81
2023/02/24 09:10:10;;;;;;;77.53;34.67;;;;;;;13.68;60.62;97956.22;6999075;28;20296;-81
2023/02/24 09:13:32;;;;;;;68.80;35.10;;;;;;;13.82;61.42;97945.88;6998908;28;20248;-80
2023/02/24 09:17:05;;;;;;;67.57;34.13;;;;;;;14.61;59.38;97948.16;6999791;28;20198;-80
2023/02/24 09:24:08;;;;;;;74.20;34.93;;;;;;;13.72;61.28;97957.38;6987915;28;20206;-80
2023/02/24 09:27:30;;;;;;;79.73;37.03;;;;;;;13.80;61.53;97948.81;6974758;28;20232;-82
2023/02/24 09:30:53;;;;;;;80.37;38.90;;;;;;;14.06;61.27;97940.03;6992200;28;20894;-81
2023/02/24 09:34:17;;;;;;;87.43;38.10;;;;;;;14.22;60.74;97941.91;6998913;28;20297;-82
2023/02/24 09:37:40;;;;;;;89.57;38.03;;;;;;;13.89;61.61;97939.22;6999740;28;20587;-81
2023/02/24 09:41:05;;;;;;;78.43;37.90;;;;;;;13.79;62.16;97947.19;7009212;28;20203;-82
2023/02/24 09:44:33;;;;;;;78.70;40.00;;;;;;;13.27;62.07;97878.06;6994916;28;20628;-81
2023/02/24 09:47:56;;;;;;;91.50;37.17;;;;;;;13.90;61.56;97929.19;6990987;28;20692;-81
2023/02/24 09:51:24;;;;;;;83.87;38.10;;;;;;;14.09;61.26;97936.81;7001737;28;20229;-81
2023/02/24 09:58:36;;;;;;;72.83;32.40;;;;;;;12.89;63.35;97904.94;6999443;28;20222;-83
2023/02/24 10:02:03;;;;;;;62.90;32.83;;;;;;;13.16;63.18;97914.13;7001092;28;20575;-82
2023/02/24 10:05:28;;;;;;;67.87;33.80;;;;;;;13.57;62.54;97908.34;7000343;28;20268;-81
2023/02/24 10:08:54;;;;;;;64.77;31.43;;;;;;;13.90;60.29;97912.94;6992066;28;20218;-80
2023/02/24 10:12:19;;;;;;;54.17;30.13;;;;;;;13.77;60.24;97867.22;6972525;28;20196;-80
2023/02/24 10:19:27;;;;;;;59.80;30.57;;;;;;;14.42;59.03;97922.41;6970169;28;20261;-80
2023/02/24 10:22:53;;;;;;;54.30;29.37;;;;;;;14.57;58.47;97914.50;6973657;28;20305;-81
2023/02/24 10:26:30;;;;;;;59.53;31.03;;;;;;;14.48;58.54;97897.84;6972339;28;20221;-81
2023/02/24 10:30:03;;;;;;;55.57;29.60;;;;;;;14.44;58.50;97904.00;6975032;28;20237;-82
2023/02/24 10:33:36;;;;;;;55.10;30.80;;;;;;;14.31;58.29;97898.94;6999736;28;20686;-80
2023/02/24 10:36:59;;;;;;;53.77;29.23;;;;;;;13.57;60.55;97908.34;7001038;28;20298;-79
2023/02/24 10:40:32;;;;;;;55.77;30.27;;;;;;;14.11;59.40;97899.44;7001378;28;20229;-81
2023/02/24 10:43:55;;;;;;;53.30;27.03;;;;;;;14.80;58.46;97898.75;7002425;28;20288;-81
2023/02/24 10:47:18;;;;;;;49.87;25.47;;;;;;;15.23;56.63;97887.81;6992620;28;20290;-84
2023/02/24 10:50:43;;;;;;;41.03;22.77;;;;;;;15.03;56.56;97886.78;6974572;28;20217;-82
2023/02/24 10:54:32;;;;;;;41.93;23.57;;;;;;;15.38;55.33;97874.44;6997733;28;20202;-83
2023/02/24 10:58:04;;;;;;;39.77;22.03;;;;;;;15.31;55.41;97870.25;7004008;28;20275;-82
2023/02/24 11:01:42;;;;;;;41.47;22.93;;;;;;;15.57;54.14;97831.41;7005041;28;20197;-82
2023/02/24 11:09:01;;;;;;;38.90;21.17;;;;;;;16.14;53.27;97854.91;6973554;28;20271;-87
2023/02/24 11:19:44;;;;;;;42.80;21.70;;;;;;;15.61;53.72;97838.78;6989838;28;20229;-81
2023/02/24 11:23:08;;;;;;;42.40;24.20;;;;;;;15.06;54.02;97842.88;6979552;28;20242;-83
2023/02/24 11:26:35;;;;;;;38.07;21.50;;;;;;;15.15;54.98;97835.91;6974115;28;20229;-81
2023/02/24 11:30:07;;;;;;;39.17;22.00;;;;;;;15.51;52.92;97810.72;6974053;28;20602;-83
2023/02/24 11:33:34;;;;;;;41.93;21.23;;;;;;;15.40;53.22;97779.91;6996043;28;20202;-82
2023/02/24 11:37:05;;;;;;;51.67;23.13;;;;;;;14.83;54.85;97821.47;6995203;28;20188;-82
2023/02/24 11:40:28;;;;;;;46.17;22.80;;;;;;;14.66;55.58;97816.13;7001303;28;20487;-83
2023/02/24 11:43:56;;;;;;;42.77;22.53;;;;;;;14.63;55.36;97804.97;7000980;28;20215;-82
2023/02/24 11:47:22;;;;;;;51.60;26.40;;;;;;;14.75;55.35;97805.66;7004607;28;20316;-82
2023/02/24 11:50:46;;;;;;;55.70;27.83;;;;;;;14.67;55.74;97792.50;7004884;28;20307;-80
2023/02/24 11:54:11;;;;;;;48.17;24.97;;;;;;;14.53;56.02;97786.69;6982424;28;20550;-81
2023/02/24 11:57:38;;;;;;;49.03;23.67;;;;;;;14.56;55.66;97736.50;7001053;28;20238;-82
2023/02/24 12:01:04;;;;;;;58.37;26.03;;;;;;;15.02;55.12;97765.72;6997979;28;20294;-81
2023/02/24 12:04:28;;;;;;;46.37;23.53;;;;;;;14.61;55.34;97766.41;6998984;28;20221;-81
2023/02/24 12:07:52;;;;;;;48.93;26.00;;;;;;;14.70;55.69;97757.56;7000703;28;20231;-81
2023/02/24 12:11:18;;;;;;;55.30;24.70;;;;;;;14.82;55.37;97743.84;6995184;28;20202;-81
2023/02/24 12:14:42;;;;;;;51.23;24.20;;;;;;;14.76;55.21;97734.00;7000570;28;20661;-81
2023/02/24 12:18:12;;;;;;;52.27;25.37;;;;;;;14.27;57.14;97727.81;7000018;28;20332;-82
2023/02/24 12:21:36;;;;;;;48.03;23.30;;;;;;;14.03;57.02;97717.47;7000279;28;20192;-81
2023/02/24 12:24:58;;;;;;;46.07;23.40;;;;;;;14.68;56.18;97715.50;7000138;28;20267;-81
2023/02/24 12:28:26;;;;;;;43.53;23.63;;;;;;;14.99;55.41;97693.78;7000883;28;20234;-81
2023/02/24 12:31:55;;;;;;;45.33;22.50;;;;;;;14.85;54.26;97694.47;7002972;28;20257;-81
2023/02/24 12:35:23;;;;;;;47.77;23.83;;;;;;;15.61;53.40;97686.63;7003099;28;20207;-80
2023/02/24 12:38:55;;;;;;;44.70;22.67;;;;;;;15.38;53.31;97684.31;7001005;28;20359;-82
2023/02/24 12:42:22;;;;;;;44.13;22.67;;;;;;;15.40;52.88;97673.19;7003916;28;20205;-81
2023/02/24 12:45:49;;;;;;;46.10;23.90;;;;;;;15.93;51.70;97611.19;7003889;28;20715;-82
2023/02/24 12:49:22;;;;;;;43.80;23.40;;;;;;;16.16;51.64;97634.38;6977158;28;20308;-82
2023/02/24 12:52:53;;;;;;;43.40;21.73;;;;;;;16.05;51.91;97644.38;6992077;28;20360;-81
2023/02/24 12:56:20;;;;;;;40.77;21.03;;;;;;;15.71;52.38;97647.81;7000094;28;20297;-81
2023/02/24 12:59:42;;;;;;;42.23;21.60;;;;;;;15.53;52.79;97651.81;7000909;28;20580;-82
2023/02/24 13:03:16;;;;;;;52.63;26.07;;;;;;;15.89;51.25;97587.53;6999008;28;20214;-82
2023/02/24 13:06:50;;;;;;;41.47;22.07;;;;;;;16.08;50.78;97622.09;6997709;28;20321;-80
2023/02/24 13:10:21;;;;;;;36.17;21.17;;;;;;;15.96;51.52;97653.31;6997988;28;20224;-83
2023/02/24 13:13:47;;;;;;;37.80;21.07;;;;;;;15.77;51.57;97642.13;6993143;28;20356;-80
2023/02/24 13:17:21;;;;;;;41.37;21.00;;;;;;;15.93;51.39;97626.69;6979920;28;20188;-80
2023/02/24 13:20:43;;;;;;;39.57;20.93;;;;;;;15.92;51.47;97633.22;6988220;28;20195;-80
2023/02/24 13:24:04;;;;;;;41.20;21.57;;;;;;;16.09;50.99;97626.44;6995733;28;20204;-80
2023/02/24 13:27:28;;;;;;;43.50;21.60;;;;;;;16.30;50.79;97627.31;6975400;28;20337;-82
2023/02/24 13:30:58;;;;;;;36.57;20.63;;;;;;;16.17;50.43;97615.03;6993478;28;20218;-81
2023/02/24 13:34:31;;;;;;;44.07;22.77;;;;;;;16.27;50.27;97609.63;6998411;28;20208;-79
2023/02/24 13:37:53;;;;;;;39.57;21.47;;;;;;;15.77;51.62;97597.81;6997919;28;20831;-81
2023/02/24 13:41:36;;;;;;;46.40;23.47;;;;;;;16.43;50.38;97586.84;6999577;28;20207;-81
2023/02/24 13:45:05;;;;;;;45.37;21.83;;;;;;;15.75;50.92;97589.94;6997815;28;20241;-80
2023/02/24 13:48:49;;;;;;;45.67;20.77;;;;;;;15.41;51.78;97579.75;6998572;28;20372;-80
2023/02/24 13:52:19;;;;;;;41.37;20.90;;;;;;;15.77;52.00;97586.94;6999242;28;20215;-80
2023/02/24 13:55:50;;;;;;;39.97;20.03;;;;;;;15.27;52.44;97571.25;7008112;28;20278;-81
2023/02/24 13:59:24;;;;;;;37.30;20.50;;;;;;;15.84;51.63;97566.59;6999489;28;20594;-80
2023/02/24 14:02:51;;;;;;;40.53;20.30;;;;;;;15.99;51.16;97549.50;6998980;28;20270;-80
2023/02/24 14:06:19;;;;;;;39.07;20.30;;;;;;;16.02;51.09;97560.66;6998529;28;20268;-80
2023/02/24 14:09:45;;;;;;;37.40;20.17;;;;;;;16.11;50.70;97550.06;7000562;28;20299;-80
2023/02/24 14:13:14;;;;;;;42.20;20.63;;;;;;;16.20;50.20;97551.97;6979607;28;20691;-81
2023/02/24 14:16:38;;;;;;;38.63;19.67;;;;;;;16.04;50.59;97554.94;6975555;28;20621;-82
2023/02/24 14:20:14;;;;;;;39.30;18.90;;;;;;;15.48;51.83;97559.44;6998741;28;20239;-80
2023/02/24 14:23:36;;;;;;;41.33;19.23;;;;;;;15.30;52.02;97548.16;6998556;28;20210;-80
2023/02/24 14:26:59;;;;;;;42.00;20.53;;;;;;;15.50;52.17;97540.13;6998582;28;20227;-80
2023/02/24 14:30:26;;;;;;;36.37;19.20;;;;;;;15.46;51.81;97523.53;7000633;28;20722;-81
2023/02/24 14:33:54;;;;;;;39.57;19.40;;;;;;;15.49;51.07;97535.78;7000685;28;20208;-81
2023/02/24 14:37:18;;;;;;;38.90;20.13;;;;;;;14.93;53.33;97537.41;7003390;28;20698;-82
2023/02/24 14:40:47;;;;;;;48.33;23.70;;;;;;;15.32;52.66;97522.41;7006131;28;20288;-80
2023/02/24 14:44:18;;;;;;;35.43;17.73;;;;;;;14.67;53.39;97523.94;7005339;28;20329;-80
2023/02/24 14:47:41;;;;;;;39.77;19.80;;;;;;;15.15;52.61;97518.25;7005151;28;20658;-82
2023/02/24 14:51:07;;;;;;;38.57;19.47;;;;;;;14.42;52.91;97424.28;7006848;28;20202;-82
2023/02/24 14:54:39;;;;;;;38.07;20.10;;;;;;;14.79;53.62;97503.69;7005431;28;20252;-80
2023/02/24 14:58:03;;;;;;;42.10;20.37;;;;;;;14.83;53.52;97493.94;7005341;28;20239;-81
2023/02/24 15:01:29;;;;;;;42.57;20.70;;;;;;;15.01;53.45;97501.63;7006095;28;20718;-82
2023/02/24 15:04:54;;;;;;;29.80;16.43;;;;;;;14.80;53.14;97507.22;7006767;28;20302;-82
2023/02/24 15:08:25;;;;;;;33.27;19.40;;;;;;;15.30;52.33;97502.84;7005377;28;20275;-82
2023/02/24 15:11:49;;;;;;;32.33;17.93;;;;;;;14.81;52.97;97492.56;7006433;28;20188;-81
2023/02/24 15:15:19;;;;;;;28.77;17.00;;;;;;;14.67;53.53;97486.78;7002908;28;20269;-81
2023/02/24 15:18:41;;;;;;;34.50;17.33;;;;;;;14.63;53.59;97468.59;7006808;28;20313;-80
2023/02/24 15:22:03;;;;;;;30.67;17.67;;;;;;;14.96;53.23;97481.78;7008154;28;20212;-83
2023/02/24 15:25:26;;;;;;;29.37;16.57;;;;;;;14.76;53.32;97479.78;7003394;28;20293;-81
2023/02/24 15:28:57;;;;;;;31.50;17.03;;;;;;;14.98;53.22;97482.34;6999272;28;20284;-83
2023/02/24 15:32:21;;;;;;;30.40;15.83;;;;;;;14.97;53.13;97458.97;6995891;28;20206;-80
2023/02/24 15:35:48;;;;;;;33.33;18.07;;;;;;;15.26;52.69;97465.59;6988001;28;20276;-81
2023/02/24 15:39:17;;;;;;;34.83;17.33;;;;;;;14.67;52.74;97372.88;6985415;28;20226;-81
2023/02/24 15:42:39;;;;;;;26.40;17.27;;;;;;;15.25;52.62;97445.78;6998510;28;20199;-81
2023/02/24 15:46:13;;;;;;;26.33;16.07;;;;;;;15.00;52.88;97437.59;7000342;28;20265;-80
2023/02/24 15:49:35;;;;;;;33.83;17.63;;;;;;;15.22;52.69;97451.75;7003598;28;20293;-81
2023/02/24 15:52:58;;;;;;;27.73;16.70;;;;;;;14.89;53.09;97452.19;7005778;28;20256;-82
2023/02/24 15:56:20;;;;;;;47.20;25.97;;;;;;;15.13;53.35;97445.22;7003931;28;20248;-82
2023/02/24 15:59:41;;;;;;;30.23;17.60;;;;;;;15.20;53.74;97434.09;7003347;28;20230;-80
2023/02/24 16:03:04;;;;;;;30.13;17.67;;;;;;;15.07;53.93;97421.84;7004861;28;20228;-80
2023/02/24 16:06:27;;;;;;;30.33;19.23;;;;;;;14.88;54.84;97419.88;6992049;28;20232;-80
2023/02/24 16:09:49;;;;;;;37.13;19.40;;;;;;;15.09;54.38;97427.81;6979963;28;20230;-81